sensor_id;sensor_type;location;lat;lon;timestamp;pressure;altitude;pressure_sealevel;temperature;humidity
28004;BME280;15330;51.234;6.754;2023-02-16T00:00:57;102019.28;;;6.31;82.87
28004;BME280;15330;51.234;6.754;2023-02-16T00:03:22;102021.00;;;6.19;83.36
28004;BME280;15330;51.234;6.754;2023-02-16T00:05:49;102018.13;;;6.10;83.40
28004;BME280;15330;51.234;6.754;2023-02-16T00:08:15;102016.41;;;6.09;83.35
28004;BME280;15330;51.234;6.754;2023-02-16T00:10:40;102019.38;;;6.17;82.50
28004;BME280;15330;51.234;6.754;2023-02-16T00:13:18;102020.97;;;6.07;83.15
28004;BME280;15330;51.234;6.754;2023-02-16T00:16:04;102016.72;;;5.92;84.25
28004;BME280;15330;51.234;6.754;2023-02-16T00:18:30;102013.78;;;5.82;84.49
28004;BME280;15330;51.234;6.754;2023-02-16T00:20:55;102021.44;;;5.86;84.08
28004;BME280;15330;51.234;6.754;2023-02-16T00:23:20;102021.69;;;5.96;83.80
28004;BME280;15330;51.234;6.754;2023-02-16T00:25:45;102024.06;;;6.01;83.18
28004;BME280;15330;51.234;6.754;2023-02-16T00:28:17;102022.03;;;6.04;83.78
28004;BME280;15330;51.234;6.754;2023-02-16T00:30:43;102015.28;;;5.86;84.54
28004;BME280;15330;51.234;6.754;2023-02-16T00:33:18;102013.19;;;6.04;83.11
28004;BME280;15330;51.234;6.754;2023-02-16T00:35:44;102007.56;;;5.96;83.52
28004;BME280;15330;51.234;6.754;2023-02-16T00:38:10;102002.78;;;5.61;85.03
28004;BME280;15330;51.234;6.754;2023-02-16T00:40:36;102007.50;;;5.70;84.75
28004;BME280;15330;51.234;6.754;2023-02-16T00:43:02;102000.06;;;5.75;84.74
28004;BME280;15330;51.234;6.754;2023-02-16T00:45:28;102007.75;;;5.80;84.24
28004;BME280;15330;51.234;6.754;2023-02-16T00:47:54;102000.97;;;5.62;84.98
28004;BME280;15330;51.234;6.754;2023-02-16T00:50:23;102005.25;;;5.64;84.94
28004;BME280;15330;51.234;6.754;2023-02-16T00:52:50;102000.06;;;5.36;86.26
28004;BME280;15330;51.234;6.754;2023-02-16T00:55:18;102001.34;;;5.43;85.93
28004;BME280;15330;51.234;6.754;2023-02-16T00:57:56;101996.19;;;5.54;85.69
28004;BME280;15330;51.234;6.754;2023-02-16T01:00:37;101997.84;;;5.42;85.52
28004;BME280;15330;51.234;6.754;2023-02-16T01:03:06;101995.25;;;5.55;85.14
28004;BME280;15330;51.234;6.754;2023-02-16T01:05:33;101991.69;;;5.42;85.44
28004;BME280;15330;51.234;6.754;2023-02-16T01:07:59;101993.28;;;5.44;85.56
28004;BME280;15330;51.234;6.754;2023-02-16T01:10:43;101981.69;;;5.33;85.96
28004;BME280;15330;51.234;6.754;2023-02-16T01:13:27;101994.59;;;5.51;85.54
28004;BME280;15330;51.234;6.754;2023-02-16T01:15:52;101995.19;;;5.42;86.08
28004;BME280;15330;51.234;6.754;2023-02-16T01:18:18;101978.84;;;5.36;85.71
28004;BME280;15330;51.234;6.754;2023-02-16T01:20:45;101979.44;;;5.27;86.66
28004;BME280;15330;51.234;6.754;2023-02-16T01:23:11;101990.59;;;5.32;85.69
28004;BME280;15330;51.234;6.754;2023-02-16T01:25:37;101987.47;;;5.39;85.95
28004;BME280;15330;51.234;6.754;2023-02-16T01:28:03;101993.25;;;5.32;86.33
28004;BME280;15330;51.234;6.754;2023-02-16T01:30:37;101993.91;;;5.35;85.76
28004;BME280;15330;51.234;6.754;2023-02-16T01:33:02;101992.09;;;5.36;86.36
28004;BME280;15330;51.234;6.754;2023-02-16T01:35:30;101988.34;;;5.26;86.34
28004;BME280;15330;51.234;6.754;2023-02-16T01:37:57;101993.66;;;5.26;86.13
28004;BME280;15330;51.234;6.754;2023-02-16T01:45:39;101982.63;;;5.32;85.85
28004;BME280;15330;51.234;6.754;2023-02-16T01:48:15;101971.59;;;5.25;86.28
28004;BME280;15330;51.234;6.754;2023-02-16T01:50:53;101970.31;;;5.04;87.15
28004;BME280;15330;51.234;6.754;2023-02-16T01:53:27;101969.47;;;5.03;87.17
28004;BME280;15330;51.234;6.754;2023-02-16T01:55:59;101966.97;;;5.14;86.54
28004;BME280;15330;51.234;6.754;2023-02-16T01:58:41;101948.59;;;4.85;87.98
28004;BME280;15330;51.234;6.754;2023-02-16T02:01:38;101975.53;;;5.05;87.51
28004;BME280;15330;51.234;6.754;2023-02-16T02:04:45;101973.66;;;4.93;87.81
28004;BME280;15330;51.234;6.754;2023-02-16T02:07:26;101975.69;;;5.16;86.75
28004;BME280;15330;51.234;6.754;2023-02-16T02:10:40;101972.63;;;4.96;87.71
28004;BME280;15330;51.234;6.754;2023-02-16T02:12:58;101963.97;;;5.06;87.32
28004;BME280;15330;51.234;6.754;2023-02-16T02:15:30;101970.06;;;5.21;86.81
28004;BME280;15330;51.234;6.754;2023-02-16T02:17:56;101961.97;;;5.10;87.14
28004;BME280;15330;51.234;6.754;2023-02-16T02:20:35;101965.53;;;4.96;88.09
28004;BME280;15330;51.234;6.754;2023-02-16T02:28:53;101963.84;;;4.81;88.60
28004;BME280;15330;51.234;6.754;2023-02-16T02:31:46;101961.88;;;4.70;88.71
28004;BME280;15330;51.234;6.754;2023-02-16T02:34:27;101957.31;;;4.87;88.13
28004;BME280;15330;51.234;6.754;2023-02-16T02:37:28;101955.63;;;4.71;88.73
28004;BME280;15330;51.234;6.754;2023-02-16T02:40:08;101943.50;;;4.82;88.69
28004;BME280;15330;51.234;6.754;2023-02-16T02:45:22;101951.94;;;4.74;88.98
28004;BME280;15330;51.234;6.754;2023-02-16T02:47:49;101941.53;;;4.71;88.86
28004;BME280;15330;51.234;6.754;2023-02-16T02:53:10;101941.06;;;4.64;89.35
28004;BME280;15330;51.234;6.754;2023-02-16T02:55:41;101948.00;;;4.67;89.09
28004;BME280;15330;51.234;6.754;2023-02-16T02:58:28;101938.69;;;4.74;88.58
28004;BME280;15330;51.234;6.754;2023-02-16T03:01:16;101931.94;;;4.83;88.49
28004;BME280;15330;51.234;6.754;2023-02-16T03:03:48;101937.16;;;4.70;88.65
28004;BME280;15330;51.234;6.754;2023-02-16T03:06:22;101933.13;;;4.50;89.43
28004;BME280;15330;51.234;6.754;2023-02-16T03:08:54;101930.97;;;4.57;88.88
28004;BME280;15330;51.234;6.754;2023-02-16T03:11:23;101937.31;;;4.54;88.87
28004;BME280;15330;51.234;6.754;2023-02-16T03:14:15;101925.84;;;4.54;88.94
28004;BME280;15330;51.234;6.754;2023-02-16T03:16:50;101915.34;;;4.52;89.48
28004;BME280;15330;51.234;6.754;2023-02-16T03:19:35;101913.75;;;4.50;89.19
28004;BME280;15330;51.234;6.754;2023-02-16T03:22:21;101908.00;;;4.43;89.33
28004;BME280;15330;51.234;6.754;2023-02-16T03:25:05;101900.69;;;4.47;89.11
28004;BME280;15330;51.234;6.754;2023-02-16T03:27:49;101903.53;;;4.43;89.24
28004;BME280;15330;51.234;6.754;2023-02-16T03:30:34;101909.03;;;4.40;89.42
28004;BME280;15330;51.234;6.754;2023-02-16T03:32:59;101906.66;;;4.50;89.75
28004;BME280;15330;51.234;6.754;2023-02-16T03:35:25;101910.47;;;4.46;89.15
28004;BME280;15330;51.234;6.754;2023-02-16T03:37:51;101912.72;;;4.38;89.64
28004;BME280;15330;51.234;6.754;2023-02-16T03:40:16;101906.19;;;4.43;89.44
28004;BME280;15330;51.234;6.754;2023-02-16T03:42:56;101907.16;;;4.28;90.03
28004;BME280;15330;51.234;6.754;2023-02-16T03:45:22;101898.34;;;4.28;89.91
28004;BME280;15330;51.234;6.754;2023-02-16T03:47:48;101914.31;;;4.40;89.21
28004;BME280;15330;51.234;6.754;2023-02-16T03:50:13;101907.81;;;4.32;89.76
28004;BME280;15330;51.234;6.754;2023-02-16T03:52:39;101918.78;;;4.26;89.95
28004;BME280;15330;51.234;6.754;2023-02-16T03:55:05;101919.25;;;4.32;89.35
28004;BME280;15330;51.234;6.754;2023-02-16T03:57:30;101922.19;;;4.28;90.33
28004;BME280;15330;51.234;6.754;2023-02-16T03:59:55;101918.00;;;4.38;89.91
28004;BME280;15330;51.234;6.754;2023-02-16T04:02:21;101914.91;;;4.31;90.03
28004;BME280;15330;51.234;6.754;2023-02-16T04:04:46;101923.31;;;4.38;89.07
28004;BME280;15330;51.234;6.754;2023-02-16T04:07:12;101917.63;;;4.16;90.76
28004;BME280;15330;51.234;6.754;2023-02-16T04:09:37;101910.47;;;4.32;89.70
28004;BME280;15330;51.234;6.754;2023-02-16T04:12:03;101906.38;;;4.26;89.86
28004;BME280;15330;51.234;6.754;2023-02-16T04:14:47;101913.47;;;4.26;90.07
28004;BME280;15330;51.234;6.754;2023-02-16T04:17:13;101892.97;;;4.29;89.78
28004;BME280;15330;51.234;6.754;2023-02-16T04:19:38;101902.78;;;4.27;89.86
28004;BME280;15330;51.234;6.754;2023-02-16T04:22:04;101904.31;;;4.31;89.68
28004;BME280;15330;51.234;6.754;2023-02-16T04:24:29;101905.66;;;4.24;90.06
28004;BME280;15330;51.234;6.754;2023-02-16T04:26:54;101909.69;;;4.16;90.28
28004;BME280;15330;51.234;6.754;2023-02-16T04:29:20;101907.91;;;4.16;90.26
28004;BME280;15330;51.234;6.754;2023-02-16T04:31:45;101911.78;;;4.11;90.80
28004;BME280;15330;51.234;6.754;2023-02-16T04:34:10;101914.19;;;4.15;90.85
28004;BME280;15330;51.234;6.754;2023-02-16T04:36:36;101915.47;;;4.08;90.34
28004;BME280;15330;51.234;6.754;2023-02-16T04:39:02;101909.88;;;4.27;90.23
28004;BME280;15330;51.234;6.754;2023-02-16T04:41:27;101914.16;;;4.29;90.20
28004;BME280;15330;51.234;6.754;2023-02-16T04:43:52;101909.88;;;4.27;90.26
28004;BME280;15330;51.234;6.754;2023-02-16T04:46:18;101912.75;;;4.10;91.28
28004;BME280;15330;51.234;6.754;2023-02-16T04:48:44;101906.97;;;4.03;91.35
28004;BME280;15330;51.234;6.754;2023-02-16T04:51:09;101895.81;;;4.12;91.21
28004;BME280;15330;51.234;6.754;2023-02-16T04:53:35;101908.03;;;4.15;91.10
28004;BME280;15330;51.234;6.754;2023-02-16T04:56:00;101903.56;;;4.01;91.65
28004;BME280;15330;51.234;6.754;2023-02-16T04:58:26;101905.19;;;4.03;91.84
28004;BME280;15330;51.234;6.754;2023-02-16T05:00:51;101904.91;;;3.94;91.85
28004;BME280;15330;51.234;6.754;2023-02-16T05:03:17;101902.59;;;4.16;91.26
28004;BME280;15330;51.234;6.754;2023-02-16T05:05:43;101908.09;;;3.99;91.69
28004;BME280;15330;51.234;6.754;2023-02-16T05:08:08;101910.56;;;3.88;92.62
28004;BME280;15330;51.234;6.754;2023-02-16T05:10:34;101912.75;;;4.10;91.80
28004;BME280;15330;51.234;6.754;2023-02-16T05:12:59;101901.88;;;4.00;91.91
28004;BME280;15330;51.234;6.754;2023-02-16T05:15:43;101911.59;;;3.99;92.24
28004;BME280;15330;51.234;6.754;2023-02-16T05:18:09;101909.44;;;3.92;92.32
28004;BME280;15330;51.234;6.754;2023-02-16T05:20:34;101912.25;;;3.89;92.30
28004;BME280;15330;51.234;6.754;2023-02-16T05:23:18;101898.38;;;3.99;92.45
28004;BME280;15330;51.234;6.754;2023-02-16T05:25:44;101904.34;;;4.03;91.91
28004;BME280;15330;51.234;6.754;2023-02-16T05:28:09;101909.97;;;3.97;91.90
28004;BME280;15330;51.234;6.754;2023-02-16T05:30:34;101918.09;;;3.80;93.19
28004;BME280;15330;51.234;6.754;2023-02-16T05:33:00;101921.91;;;3.90;92.33
28004;BME280;15330;51.234;6.754;2023-02-16T05:35:25;101917.66;;;4.01;92.16
28004;BME280;15330;51.234;6.754;2023-02-16T05:37:51;101916.41;;;4.07;91.51
28004;BME280;15330;51.234;6.754;2023-02-16T05:40:16;101916.69;;;3.88;92.50
28004;BME280;15330;51.234;6.754;2023-02-16T05:42:42;101918.69;;;3.99;92.07
28004;BME280;15330;51.234;6.754;2023-02-16T05:45:07;101912.84;;;3.94;92.15
28004;BME280;15330;51.234;6.754;2023-02-16T05:47:33;101914.25;;;3.99;92.27
28004;BME280;15330;51.234;6.754;2023-02-16T05:49:58;101913.88;;;3.91;92.57
28004;BME280;15330;51.234;6.754;2023-02-16T05:52:24;101908.56;;;4.05;91.98
28004;BME280;15330;51.234;6.754;2023-02-16T05:54:50;101912.34;;;3.87;91.67
28004;BME280;15330;51.234;6.754;2023-02-16T05:57:15;101914.53;;;4.09;91.37
28004;BME280;15330;51.234;6.754;2023-02-16T05:59:40;101903.66;;;4.14;90.98
28004;BME280;15330;51.234;6.754;2023-02-16T06:02:06;101910.00;;;4.11;91.24
28004;BME280;15330;51.234;6.754;2023-02-16T06:04:34;101919.66;;;4.12;90.82
28004;BME280;15330;51.234;6.754;2023-02-16T06:06:59;101906.88;;;4.74;91.36
28004;BME280;15330;51.234;6.754;2023-02-16T06:09:25;101905.25;;;4.16;90.49
28004;BME280;15330;51.234;6.754;2023-02-16T06:11:50;101908.97;;;4.14;90.14
28004;BME280;15330;51.234;6.754;2023-02-16T06:14:18;101905.47;;;4.13;90.68
28004;BME280;15330;51.234;6.754;2023-02-16T06:16:46;101906.09;;;4.17;90.45
28004;BME280;15330;51.234;6.754;2023-02-16T06:19:13;101900.81;;;4.17;90.35
28004;BME280;15330;51.234;6.754;2023-02-16T06:21:39;101902.53;;;4.03;90.45
28004;BME280;15330;51.234;6.754;2023-02-16T06:24:07;101900.34;;;3.96;91.18
28004;BME280;15330;51.234;6.754;2023-02-16T06:26:33;101897.25;;;4.03;90.79
28004;BME280;15330;51.234;6.754;2023-02-16T06:28:58;101900.34;;;4.10;90.22
28004;BME280;15330;51.234;6.754;2023-02-16T06:31:24;101894.13;;;4.11;89.94
28004;BME280;15330;51.234;6.754;2023-02-16T06:33:50;101896.97;;;3.94;90.43
28004;BME280;15330;51.234;6.754;2023-02-16T06:36:16;101905.16;;;4.18;89.77
28004;BME280;15330;51.234;6.754;2023-02-16T06:38:41;101916.88;;;4.28;89.35
28004;BME280;15330;51.234;6.754;2023-02-16T06:41:07;101915.28;;;4.11;89.94
28004;BME280;15330;51.234;6.754;2023-02-16T06:43:33;101920.88;;;4.21;89.57
28004;BME280;15330;51.234;6.754;2023-02-16T06:45:58;101912.25;;;4.17;89.22
28004;BME280;15330;51.234;6.754;2023-02-16T06:48:24;101910.84;;;3.97;89.99
28004;BME280;15330;51.234;6.754;2023-02-16T06:50:49;101914.19;;;4.15;89.80
28004;BME280;15330;51.234;6.754;2023-02-16T06:53:15;101915.38;;;4.24;89.41
28004;BME280;15330;51.234;6.754;2023-02-16T06:55:40;101919.94;;;4.36;89.05
28004;BME280;15330;51.234;6.754;2023-02-16T06:58:06;101918.28;;;4.48;87.94
28004;BME280;15330;51.234;6.754;2023-02-16T07:00:32;101919.94;;;4.36;88.70
28004;BME280;15330;51.234;6.754;2023-02-16T07:02:58;101920.47;;;4.41;88.64
28004;BME280;15330;51.234;6.754;2023-02-16T07:05:23;101911.84;;;4.37;88.69
28004;BME280;15330;51.234;6.754;2023-02-16T07:07:49;101919.34;;;4.31;89.02
28004;BME280;15330;51.234;6.754;2023-02-16T07:10:14;101918.50;;;4.45;88.12
28004;BME280;15330;51.234;6.754;2023-02-16T07:12:40;101922.97;;;4.71;87.30
28004;BME280;15330;51.234;6.754;2023-02-16T07:15:06;101922.53;;;4.91;86.57
28004;BME280;15330;51.234;6.754;2023-02-16T07:17:31;101913.47;;;4.54;87.84
28004;BME280;15330;51.234;6.754;2023-02-16T07:19:57;101916.91;;;4.69;87.10
28004;BME280;15330;51.234;6.754;2023-02-16T07:22:22;101907.00;;;4.58;87.25
28004;BME280;15330;51.234;6.754;2023-02-16T07:24:47;101925.28;;;4.63;87.09
28004;BME280;15330;51.234;6.754;2023-02-16T07:27:13;101910.59;;;4.57;87.57
28004;BME280;15330;51.234;6.754;2023-02-16T07:29:38;101909.72;;;4.71;87.01
28004;BME280;15330;51.234;6.754;2023-02-16T07:32:04;101909.56;;;4.60;87.48
28004;BME280;15330;51.234;6.754;2023-02-16T07:34:29;101920.94;;;4.48;87.76
28004;BME280;15330;51.234;6.754;2023-02-16T07:36:55;101913.81;;;4.62;87.56
28004;BME280;15330;51.234;6.754;2023-02-16T07:39:20;101916.03;;;4.56;87.90
28004;BME280;15330;51.234;6.754;2023-02-16T07:41:46;101913.38;;;4.83;87.08
28004;BME280;15330;51.234;6.754;2023-02-16T07:44:11;101923.38;;;4.92;86.76
28004;BME280;15330;51.234;6.754;2023-02-16T07:46:37;101911.88;;;4.78;86.80
28004;BME280;15330;51.234;6.754;2023-02-16T07:49:02;101907.22;;;4.82;86.95
28004;BME280;15330;51.234;6.754;2023-02-16T07:51:29;101904.38;;;4.85;86.33
28004;BME280;15330;51.234;6.754;2023-02-16T07:53:55;101920.53;;;4.95;86.24
28004;BME280;15330;51.234;6.754;2023-02-16T07:56:27;101916.38;;;4.91;86.44
28004;BME280;15330;51.234;6.754;2023-02-16T07:58:54;101917.06;;;4.80;86.90
28004;BME280;15330;51.234;6.754;2023-02-16T08:01:20;101916.22;;;4.79;86.79
28004;BME280;15330;51.234;6.754;2023-02-16T08:03:46;101922.28;;;4.82;86.09
28004;BME280;15330;51.234;6.754;2023-02-16T08:06:12;101935.00;;;4.76;87.15
28004;BME280;15330;51.234;6.754;2023-02-16T08:08:38;101933.22;;;4.63;86.63
28004;BME280;15330;51.234;6.754;2023-02-16T08:11:08;101928.53;;;4.80;86.86
28004;BME280;15330;51.234;6.754;2023-02-16T08:13:33;101923.38;;;4.65;87.06
28004;BME280;15330;51.234;6.754;2023-02-16T08:15:58;101918.56;;;4.98;85.87
28004;BME280;15330;51.234;6.754;2023-02-16T08:18:24;101922.34;;;4.94;85.81
28004;BME280;15330;51.234;6.754;2023-02-16T08:20:49;101916.03;;;5.09;85.17
28004;BME280;15330;51.234;6.754;2023-02-16T08:23:14;101919.81;;;5.32;84.17
28004;BME280;15330;51.234;6.754;2023-02-16T08:25:40;101913.66;;;5.32;84.37
28004;BME280;15330;51.234;6.754;2023-02-16T08:28:05;101933.59;;;5.77;82.79
28004;BME280;15330;51.234;6.754;2023-02-16T08:30:32;101939.31;;;5.58;82.26
28004;BME280;15330;51.234;6.754;2023-02-16T08:32:59;101941.16;;;5.43;83.15
28004;BME280;15330;51.234;6.754;2023-02-16T08:35:27;101927.72;;;5.20;84.52
28004;BME280;15330;51.234;6.754;2023-02-16T08:37:56;101931.88;;;5.76;82.03
28004;BME280;15330;51.234;6.754;2023-02-16T08:40:21;101939.69;;;5.12;84.23
28004;BME280;15330;51.234;6.754;2023-02-16T08:42:49;101926.00;;;5.98;81.30
28004;BME280;15330;51.234;6.754;2023-02-16T08:45:14;101932.00;;;6.38;79.43
28004;BME280;15330;51.234;6.754;2023-02-16T08:47:40;101934.81;;;6.11;79.31
28004;BME280;15330;51.234;6.754;2023-02-16T08:50:05;101936.19;;;6.66;78.53
28004;BME280;15330;51.234;6.754;2023-02-16T08:52:32;101928.53;;;6.74;77.23
28004;BME280;15330;51.234;6.754;2023-02-16T08:54:57;101939.00;;;6.88;77.30
28004;BME280;15330;51.234;6.754;2023-02-16T08:57:22;101924.00;;;6.87;77.24
28004;BME280;15330;51.234;6.754;2023-02-16T08:59:48;101930.94;;;6.77;76.48
28004;BME280;15330;51.234;6.754;2023-02-16T09:02:34;101931.69;;;7.15;75.46
28004;BME280;15330;51.234;6.754;2023-02-16T09:04:59;101926.31;;;7.39;75.53
28004;BME280;15330;51.234;6.754;2023-02-16T09:07:24;101935.22;;;6.79;77.50
28004;BME280;15330;51.234;6.754;2023-02-16T09:09:50;101934.88;;;8.35;72.22
28004;BME280;15330;51.234;6.754;2023-02-16T09:12:17;101931.97;;;7.69;73.46
28004;BME280;15330;51.234;6.754;2023-02-16T09:14:42;101918.19;;;7.76;74.25
28004;BME280;15330;51.234;6.754;2023-02-16T09:17:07;101916.13;;;7.79;73.75
28004;BME280;15330;51.234;6.754;2023-02-16T09:19:33;101923.53;;;7.41;75.70
28004;BME280;15330;51.234;6.754;2023-02-16T09:21:58;101940.25;;;7.19;76.33
28004;BME280;15330;51.234;6.754;2023-02-16T09:24:23;101936.47;;;7.34;76.21
28004;BME280;15330;51.234;6.754;2023-02-16T09:26:49;101924.66;;;7.49;75.49
28004;BME280;15330;51.234;6.754;2023-02-16T09:29:16;101926.72;;;7.22;76.51
28004;BME280;15330;51.234;6.754;2023-02-16T09:31:42;101930.19;;;7.81;74.81
28004;BME280;15330;51.234;6.754;2023-02-16T09:34:17;101935.22;;;8.19;73.40
28004;BME280;15330;51.234;6.754;2023-02-16T09:36:43;101941.28;;;7.64;75.44
28004;BME280;15330;51.234;6.754;2023-02-16T09:39:09;101963.31;;;7.31;76.60
28004;BME280;15330;51.234;6.754;2023-02-16T09:47:05;101962.56;;;7.29;76.82
28004;BME280;15330;51.234;6.754;2023-02-16T09:49:39;101964.66;;;7.13;77.70
28004;BME280;15330;51.234;6.754;2023-02-16T09:54:51;101966.41;;;7.49;76.17
28004;BME280;15330;51.234;6.754;2023-02-16T09:57:59;101974.00;;;7.18;77.51
28004;BME280;15330;51.234;6.754;2023-02-16T10:05:17;101980.75;;;6.75;79.22
28004;BME280;15330;51.234;6.754;2023-02-16T10:10:21;101974.25;;;6.79;79.55
28004;BME280;15330;51.234;6.754;2023-02-16T10:16:15;101974.63;;;6.49;81.63
28004;BME280;15330;51.234;6.754;2023-02-16T10:18:47;101971.66;;;6.53;80.93
28004;BME280;15330;51.234;6.754;2023-02-16T10:21:20;101970.06;;;6.51;81.40
28004;BME280;15330;51.234;6.754;2023-02-16T10:23:55;101966.28;;;6.79;80.67
28004;BME280;15330;51.234;6.754;2023-02-16T10:26:38;101969.31;;;6.49;81.67
28004;BME280;15330;51.234;6.754;2023-02-16T10:29:09;101978.22;;;6.73;81.50
28004;BME280;15330;51.234;6.754;2023-02-16T10:31:40;101970.13;;;6.75;81.49
28004;BME280;15330;51.234;6.754;2023-02-16T10:39:36;101975.81;;;6.94;81.08
28004;BME280;15330;51.234;6.754;2023-02-16T10:42:26;101983.94;;;6.80;80.97
28004;BME280;15330;51.234;6.754;2023-02-16T10:44:58;101982.63;;;6.85;81.63
28004;BME280;15330;51.234;6.754;2023-02-16T10:47:35;101967.22;;;6.78;81.81
28004;BME280;15330;51.234;6.754;2023-02-16T10:50:03;101966.44;;;6.88;81.66
28004;BME280;15330;51.234;6.754;2023-02-16T10:52:34;101970.06;;;6.87;81.58
28004;BME280;15330;51.234;6.754;2023-02-16T10:55:01;101970.41;;;7.07;80.91
28004;BME280;15330;51.234;6.754;2023-02-16T10:57:29;101966.00;;;7.18;80.32
28004;BME280;15330;51.234;6.754;2023-02-16T10:59:58;101954.31;;;7.21;80.76
28004;BME280;15330;51.234;6.754;2023-02-16T11:02:37;101960.81;;;7.17;81.08
28004;BME280;15330;51.234;6.754;2023-02-16T11:07:57;101947.56;;;7.63;79.39
28004;BME280;15330;51.234;6.754;2023-02-16T11:13:03;101940.47;;;7.74;78.83
28004;BME280;15330;51.234;6.754;2023-02-16T11:15:30;101937.97;;;7.95;78.22
28004;BME280;15330;51.234;6.754;2023-02-16T11:28:44;101909.59;;;7.83;79.67
28004;BME280;15330;51.234;6.754;2023-02-16T11:33:36;101910.25;;;7.98;80.68
28004;BME280;15330;51.234;6.754;2023-02-16T11:36:32;101925.13;;;8.11;80.74
28004;BME280;15330;51.234;6.754;2023-02-16T11:41:29;101907.53;;;7.76;81.08
28004;BME280;15330;51.234;6.754;2023-02-16T11:43:58;101892.31;;;7.78;81.74
28004;BME280;15330;51.234;6.754;2023-02-16T11:46:24;101892.53;;;7.74;81.23
28004;BME280;15330;51.234;6.754;2023-02-16T11:48:50;101895.66;;;7.68;81.65
28004;BME280;15330;51.234;6.754;2023-02-16T11:51:32;101901.38;;;7.86;82.03
28004;BME280;15330;51.234;6.754;2023-02-16T11:54:01;101897.41;;;8.03;81.74
28004;BME280;15330;51.234;6.754;2023-02-16T11:56:29;101895.09;;;7.87;82.33
28004;BME280;15330;51.234;6.754;2023-02-16T11:59:19;101885.16;;;7.89;82.58
28004;BME280;15330;51.234;6.754;2023-02-16T12:05:01;101897.53;;;8.13;84.19
28004;BME280;15330;51.234;6.754;2023-02-16T12:08:10;101899.84;;;8.28;83.77
28004;BME280;15330;51.234;6.754;2023-02-16T12:19:27;101888.81;;;8.55;81.75
28004;BME280;15330;51.234;6.754;2023-02-16T12:22:08;101881.28;;;8.60;82.59
28004;BME280;15330;51.234;6.754;2023-02-16T12:25:01;101872.56;;;8.58;82.46
28004;BME280;15330;51.234;6.754;2023-02-16T12:27:51;101873.03;;;8.63;82.30
28004;BME280;15330;51.234;6.754;2023-02-16T12:30:55;101870.50;;;8.94;81.78
28004;BME280;15330;51.234;6.754;2023-02-16T12:33:29;101867.25;;;8.90;81.94
28004;BME280;15330;51.234;6.754;2023-02-16T12:39:26;101870.19;;;8.87;84.66
28004;BME280;15330;51.234;6.754;2023-02-16T12:45:00;101857.94;;;8.84;85.51
28004;BME280;15330;51.234;6.754;2023-02-16T12:47:36;101865.91;;;8.96;85.30
28004;BME280;15330;51.234;6.754;2023-02-16T12:50:26;101862.00;;;9.00;85.54
28004;BME280;15330;51.234;6.754;2023-02-16T12:57:59;101853.03;;;9.01;84.29
28004;BME280;15330;51.234;6.754;2023-02-16T13:00:51;101845.19;;;8.88;85.22
28004;BME280;15330;51.234;6.754;2023-02-16T13:03:56;101834.56;;;9.09;85.87
28004;BME280;15330;51.234;6.754;2023-02-16T13:06:43;101824.84;;;9.08;85.23
28004;BME280;15330;51.234;6.754;2023-02-16T13:12:38;101820.22;;;9.10;85.95
28004;BME280;15330;51.234;6.754;2023-02-16T13:15:17;101829.03;;;9.22;85.50
28004;BME280;15330;51.234;6.754;2023-02-16T13:17:52;101821.94;;;9.32;84.98
28004;BME280;15330;51.234;6.754;2023-02-16T13:20:21;101818.66;;;9.28;85.25
28004;BME280;15330;51.234;6.754;2023-02-16T13:25:40;101827.53;;;9.29;84.54
28004;BME280;15330;51.234;6.754;2023-02-16T13:39:38;101793.94;;;9.87;82.49
28004;BME280;15330;51.234;6.754;2023-02-16T13:44:55;101796.91;;;9.84;83.16
28004;BME280;15330;51.234;6.754;2023-02-16T13:47:29;101781.75;;;9.94;82.51
28004;BME280;15330;51.234;6.754;2023-02-16T13:49:57;101782.34;;;10.07;82.31
28004;BME280;15330;51.234;6.754;2023-02-16T13:52:40;101779.00;;;10.05;82.76
28004;BME280;15330;51.234;6.754;2023-02-16T13:55:34;101774.84;;;10.22;81.84
28004;BME280;15330;51.234;6.754;2023-02-16T13:58:25;101770.78;;;11.04;79.37
28004;BME280;15330;51.234;6.754;2023-02-16T14:00:51;101775.97;;;11.25;78.34
28004;BME280;15330;51.234;6.754;2023-02-16T14:05:50;101768.16;;;11.51;78.16
28004;BME280;15330;51.234;6.754;2023-02-16T14:08:20;101758.00;;;11.45;77.85
28004;BME280;15330;51.234;6.754;2023-02-16T14:15:55;101750.91;;;11.17;80.00
28004;BME280;15330;51.234;6.754;2023-02-16T14:23:59;101749.19;;;11.25;81.01
28004;BME280;15330;51.234;6.754;2023-02-16T14:26:27;101745.09;;;11.31;80.67
28004;BME280;15330;51.234;6.754;2023-02-16T14:29:05;101739.19;;;11.27;81.28
28004;BME280;15330;51.234;6.754;2023-02-16T14:31:41;101735.25;;;11.12;81.66
28004;BME280;15330;51.234;6.754;2023-02-16T14:34:16;101733.25;;;11.24;81.74
28004;BME280;15330;51.234;6.754;2023-02-16T14:37:22;101737.78;;;11.23;81.97
28004;BME280;15330;51.234;6.754;2023-02-16T14:39:52;101730.59;;;11.14;82.74
28004;BME280;15330;51.234;6.754;2023-02-16T14:42:30;101723.84;;;11.20;82.53
28004;BME280;15330;51.234;6.754;2023-02-16T14:59:12;101721.16;;;11.20;84.02
28004;BME280;15330;51.234;6.754;2023-02-16T15:01:43;101710.84;;;11.25;83.75
28004;BME280;15330;51.234;6.754;2023-02-16T15:04:09;101712.97;;;11.31;83.75
28004;BME280;15330;51.234;6.754;2023-02-16T15:06:41;101705.06;;;11.29;84.30
28004;BME280;15330;51.234;6.754;2023-02-16T15:09:23;101693.38;;;11.30;84.02
28004;BME280;15330;51.234;6.754;2023-02-16T15:11:51;101689.13;;;11.28;84.51
28004;BME280;15330;51.234;6.754;2023-02-16T15:14:43;101693.41;;;11.21;85.24
28004;BME280;15330;51.234;6.754;2023-02-16T15:17:21;101684.22;;;11.23;85.25
28004;BME280;15330;51.234;6.754;2023-02-16T15:19:50;101682.94;;;11.27;84.98
28004;BME280;15330;51.234;6.754;2023-02-16T15:22:19;101674.22;;;11.16;85.41
28004;BME280;15330;51.234;6.754;2023-02-16T15:25:00;101678.84;;;11.23;85.71
28004;BME280;15330;51.234;6.754;2023-02-16T15:27:27;101671.94;;;11.30;85.22
28004;BME280;15330;51.234;6.754;2023-02-16T15:30:29;101680.59;;;11.42;84.65
28004;BME280;15330;51.234;6.754;2023-02-16T15:33:02;101673.88;;;11.38;84.52